Stevinson, California
Current Conditions -  °F | °C
As of 3:45 PM on Friday 24 Oct 2014 (Local Time) from KMER Reporting Station
Clear Clear  
Wind Chill: 29°   Ceiling: Unl
Heat Index: 29°   Visibility: 7mi
Dew Point:   Wind: 8mph
Humidity: 27%   Direction: 180°S
Pressure: 29.86"   Gusts: NA
Location:  37.33°N, 120.85°W
Report Text: KMER 242245Z 18007KT 7SM SKC 29/08 A2986
Loading
Personal Weather Stations






























Interactive Weather Map
Tropical Storm Tracking
New forecast layout! Learn more

10-Day Weather Forecast

Advertisements
Track Severe Weather on mobile